Time;durP1;ratioP1;P1;durP2;ratioP2;P2;SDS_P1;SDS_P2;PMS_P1;PMS_P2;Temp;Humidity;BMP_temperature;BMP_pressure;BME280_temperature;BME280_humidity;BME280_pressure;Samples;Min_cycle;Max_cycle;Signal;HPM_P1;HPM_P2
2022/10/29 00:02:22;;;;;;;0.88;0.88;;;15.80;99.90;;;;;;4373130;32;20095;-75
2022/10/29 00:04:47;;;;;;;1.85;1.45;;;15.80;99.90;;;;;;4358048;32;20093;-75
2022/10/29 00:07:13;;;;;;;3.97;1.75;;;15.70;99.90;;;;;;4363831;32;20071;-75
2022/10/29 00:09:38;;;;;;;1.25;1.15;;;15.70;99.90;;;;;;4373696;32;20087;-76
2022/10/29 00:12:04;;;;;;;0.70;0.70;;;15.60;99.90;;;;;;4375221;32;20090;-76
2022/10/29 00:14:29;;;;;;;1.25;1.15;;;15.50;99.90;;;;;;4371662;32;20082;-76
2022/10/29 00:16:55;;;;;;;2.87;1.27;;;15.50;99.90;;;;;;4372936;32;20082;-76
2022/10/29 00:19:22;;;;;;;2.28;1.33;;;15.50;99.90;;;;;;4375299;32;20075;-76
2022/10/29 00:21:49;;;;;;;2.22;1.05;;;15.40;99.90;;;;;;4375362;32;20090;-76
2022/10/29 00:24:15;;;;;;;1.15;1.05;;;15.40;99.90;;;;;;4377053;32;20078;-75
2022/10/29 00:26:41;;;;;;;0.60;0.60;;;15.40;99.90;;;;;;4375409;32;20440;-76
2022/10/29 00:29:06;;;;;;;2.85;1.37;;;15.40;99.90;;;;;;4375412;32;20099;-75
2022/10/29 00:31:32;;;;;;;2.87;1.73;;;15.20;99.90;;;;;;4375628;32;20117;-76
2022/10/29 00:33:57;;;;;;;2.40;1.55;;;15.20;99.90;;;;;;4365167;32;20582;-75
2022/10/29 00:36:26;;;;;;;0.50;0.50;;;15.10;99.90;;;;;;4357234;32;20808;-75
2022/10/29 00:38:52;;;;;;;18.37;2.90;;;15.10;99.90;;;;;;4369225;32;22383;-74
2022/10/29 00:41:20;;;;;;;2.72;1.50;;;15.00;99.90;;;;;;4376517;32;20106;-76
2022/10/29 00:43:49;;;;;;;3.87;1.60;;;15.00;99.90;;;;;;4372644;32;20075;-75
2022/10/29 00:46:29;;;;;;;0.50;0.50;;;14.90;99.90;;;;;;4374956;32;20198;-75
2022/10/29 00:48:56;;;;;;;8.20;2.37;;;14.90;99.90;;;;;;4375319;32;20102;-75
2022/10/29 00:51:22;;;;;;;2.08;1.02;;;14.70;99.90;;;;;;4369678;32;20138;-75
2022/10/29 00:53:54;;;;;;;3.97;0.77;;;14.70;99.90;;;;;;4367298;32;20078;-75
2022/10/29 00:56:23;;;;;;;1.75;1.62;;;14.60;99.90;;;;;;4375024;32;20201;-75
2022/10/29 00:58:48;;;;;;;0.95;0.73;;;14.60;99.90;;;;;;4368705;32;20095;-75
2022/10/29 01:01:14;;;;;;;0.43;0.43;;;14.60;99.90;;;;;;4373616;32;20448;-75
2022/10/29 01:03:40;;;;;;;0.75;0.75;;;14.50;99.90;;;;;;4362866;32;20094;-76
2022/10/29 01:06:07;;;;;;;2.78;0.93;;;14.50;99.90;;;;;;4359769;32;20136;-74
2022/10/29 01:08:32;;;;;;;1.55;0.88;;;14.80;99.90;;;;;;4370144;32;20545;-76
2022/10/29 01:11:22;;;;;;;1.12;1.02;;;14.80;99.90;;;;;;4373512;32;20312;-76
2022/10/29 01:14:14;;;;;;;0.77;0.77;;;14.80;99.90;;;;;;4364891;32;20474;-76
2022/10/29 01:16:51;;;;;;;1.95;1.00;;;14.80;99.90;;;;;;4362900;32;20066;-77
2022/10/29 01:19:45;;;;;;;4.68;1.27;;;14.70;99.90;;;;;;4371761;32;20376;-76
2022/10/29 01:22:33;;;;;;;0.50;0.50;;;14.70;99.90;;;;;;4372145;32;20558;-77
2022/10/29 01:25:29;;;;;;;3.90;2.25;;;14.70;99.90;;;;;;4361805;32;20067;-77
2022/10/29 01:28:05;;;;;;;2.95;1.62;;;14.80;99.90;;;;;;4360138;32;20126;-76
2022/10/29 01:30:53;;;;;;;1.55;1.25;;;14.80;99.90;;;;;;4369283;32;20079;-76
2022/10/29 01:33:32;;;;;;;1.17;0.85;;;14.90;99.90;;;;;;4363552;32;20093;-75
2022/10/29 01:36:20;;;;;;;8.15;1.05;;;14.90;99.90;;;;;;4357308;32;20094;-75
2022/10/29 01:39:02;;;;;;;4.78;1.75;;;14.90;99.90;;;;;;4363280;32;20149;-76
2022/10/29 01:41:53;;;;;;;2.72;1.35;;;14.90;99.90;;;;;;4369896;32;20091;-75
2022/10/29 01:44:42;;;;;;;7.75;2.15;;;14.90;99.90;;;;;;4360929;32;20412;-75
2022/10/29 01:47:20;;;;;;;2.70;1.65;;;14.80;99.90;;;;;;4369979;32;20138;-76
2022/10/29 01:49:51;;;;;;;2.05;1.05;;;14.80;99.90;;;;;;4370281;32;20074;-76
2022/10/29 01:52:20;;;;;;;5.70;1.77;;;14.80;99.90;;;;;;4370840;32;20090;-75
2022/10/29 01:54:47;;;;;;;0.80;0.80;;;14.80;99.90;;;;;;4370022;32;21575;-76
2022/10/29 01:57:32;;;;;;;1.65;1.15;;;14.80;99.90;;;;;;4370062;32;20097;-76
2022/10/29 02:00:03;;;;;;;0.60;0.60;;;14.80;99.90;;;;;;4369762;32;20103;-75
2022/10/29 02:03:09;;;;;;;1.27;1.00;;;14.80;99.90;;;;;;4369453;32;20091;-74
2022/10/29 02:05:45;;;;;;;1.02;0.80;;;14.80;99.90;;;;;;4334106;32;20483;-75
2022/10/29 02:08:18;;;;;;;1.10;0.98;;;14.80;99.90;;;;;;4372084;32;20093;-75
2022/10/29 02:10:49;;;;;;;0.50;0.50;;;14.80;99.90;;;;;;4368978;32;20492;-74
2022/10/29 02:13:17;;;;;;;4.05;1.65;;;14.80;99.90;;;;;;4367693;32;20058;-75
2022/10/29 02:15:48;;;;;;;12.18;2.10;;;14.70;99.90;;;;;;4368354;32;20061;-75
2022/10/29 02:18:15;;;;;;;0.93;0.93;;;14.60;99.90;;;;;;4368748;32;20066;-75
2022/10/29 02:20:42;;;;;;;0.62;0.62;;;14.60;99.90;;;;;;4371680;32;20092;-75
2022/10/29 02:23:08;;;;;;;0.70;0.70;;;14.60;99.90;;;;;;4370524;32;20067;-75
2022/10/29 02:25:34;;;;;;;5.05;2.15;;;14.60;99.90;;;;;;4369862;32;20107;-75
2022/10/29 02:27:59;;;;;;;3.17;1.67;;;14.60;99.90;;;;;;4371180;32;20079;-75
2022/10/29 02:30:24;;;;;;;3.70;2.00;;;14.60;99.90;;;;;;4373671;32;20090;-75
2022/10/29 02:32:50;;;;;;;2.22;1.17;;;14.60;99.90;;;;;;4369470;32;20094;-74
2022/10/29 02:35:15;;;;;;;0.95;0.80;;;14.50;99.90;;;;;;4354378;32;20475;-74
2022/10/29 02:37:41;;;;;;;2.90;1.15;;;14.40;99.90;;;;;;4366044;32;20098;-76
2022/10/29 02:40:08;;;;;;;0.50;0.50;;;14.40;99.90;;;;;;4372894;32;20129;-75
2022/10/29 02:42:34;;;;;;;36.05;1.85;;;14.40;99.90;;;;;;4370751;32;20090;-75
2022/10/29 02:44:59;;;;;;;1.23;1.12;;;14.30;99.90;;;;;;4369127;32;20506;-75
2022/10/29 02:47:24;;;;;;;0.43;0.43;;;14.30;99.90;;;;;;4369950;32;20527;-75
2022/10/29 02:49:50;;;;;;;2.78;2.22;;;14.20;99.90;;;;;;4369646;32;20116;-74
2022/10/29 02:52:15;;;;;;;1.67;1.52;;;14.20;99.90;;;;;;4369376;32;20219;-77
2022/10/29 02:54:41;;;;;;;7.40;3.12;;;14.20;99.90;;;;;;4371675;32;20476;-75
2022/10/29 02:57:07;;;;;;;1.17;1.08;;;14.30;99.90;;;;;;4370543;32;20133;-75
2022/10/29 02:59:32;;;;;;;6.10;1.67;;;14.30;99.90;;;;;;4367200;32;20075;-75
2022/10/29 03:01:58;;;;;;;1.20;1.02;;;14.20;99.90;;;;;;4368218;32;20515;-75
2022/10/29 03:04:24;;;;;;;2.22;1.62;;;14.20;99.90;;;;;;4353192;32;20078;-75
2022/10/29 03:06:49;;;;;;;1.27;1.15;;;14.30;99.90;;;;;;4359397;32;20529;-76
2022/10/29 03:09:15;;;;;;;1.58;1.48;;;14.60;99.90;;;;;;4370065;32;20079;-77
2022/10/29 03:11:40;;;;;;;0.95;0.80;;;14.70;99.90;;;;;;4371574;32;20078;-75
2022/10/29 03:14:06;;;;;;;0.80;0.80;;;14.90;99.90;;;;;;4368384;32;20066;-76
2022/10/29 03:16:31;;;;;;;1.50;1.02;;;14.90;99.90;;;;;;4370023;32;20143;-76
2022/10/29 03:18:56;;;;;;;5.37;2.05;;;14.90;99.90;;;;;;4371254;32;20074;-76
2022/10/29 03:21:22;;;;;;;1.52;0.90;;;14.80;99.90;;;;;;4369575;32;20083;-76
2022/10/29 03:23:47;;;;;;;0.60;0.60;;;14.70;99.90;;;;;;4372363;32;20090;-77
2022/10/29 03:26:13;;;;;;;2.47;0.80;;;14.50;99.90;;;;;;4368493;32;20408;-75
2022/10/29 03:28:38;;;;;;;5.25;1.33;;;14.30;99.90;;;;;;4367648;32;20155;-77
2022/10/29 03:31:04;;;;;;;1.55;1.02;;;14.30;99.90;;;;;;4365199;32;20142;-76
2022/10/29 03:33:30;;;;;;;2.28;1.73;;;14.30;99.90;;;;;;4358652;32;20141;-75
2022/10/29 03:35:57;;;;;;;0.82;0.80;;;14.10;99.90;;;;;;4355973;32;20194;-76
2022/10/29 03:38:23;;;;;;;2.28;1.00;;;14.10;99.90;;;;;;4367464;32;20059;-77
2022/10/29 03:40:48;;;;;;;0.60;0.60;;;14.20;99.90;;;;;;4369876;32;20066;-76
2022/10/29 03:43:14;;;;;;;1.23;0.88;;;14.10;99.90;;;;;;4368774;32;20087;-76
2022/10/29 03:45:39;;;;;;;1.95;1.23;;;14.20;99.90;;;;;;4369785;32;20480;-76
2022/10/29 03:48:05;;;;;;;4.03;1.73;;;14.30;99.90;;;;;;4370575;32;20091;-76
2022/10/29 03:50:30;;;;;;;3.40;1.77;;;14.30;99.90;;;;;;4369580;32;20095;-76
2022/10/29 03:52:56;;;;;;;2.60;1.55;;;14.30;99.90;;;;;;4370489;32;20094;-76
2022/10/29 03:55:21;;;;;;;4.45;1.33;;;14.20;99.90;;;;;;4371378;32;20213;-77
2022/10/29 03:57:47;;;;;;;0.57;0.57;;;14.10;99.90;;;;;;4370546;32;20380;-77
2022/10/29 04:00:12;;;;;;;0.57;0.57;;;14.00;99.90;;;;;;4371797;32;20634;-76
2022/10/29 04:02:38;;;;;;;4.47;1.35;;;14.10;99.90;;;;;;4367501;32;20436;-75
2022/10/29 04:05:04;;;;;;;0.95;0.93;;;14.00;99.90;;;;;;4354713;32;20129;-75
2022/10/29 04:07:29;;;;;;;9.00;2.40;;;14.00;99.90;;;;;;4362441;32;20078;-76
2022/10/29 04:09:55;;;;;;;0.60;0.60;;;14.20;99.90;;;;;;4368664;32;20095;-75
2022/10/29 04:12:20;;;;;;;2.58;1.58;;;14.20;99.90;;;;;;4368797;32;20071;-76
2022/10/29 04:14:47;;;;;;;4.10;2.17;;;14.10;99.90;;;;;;4366172;32;20582;-76
2022/10/29 04:17:13;;;;;;;0.60;0.60;;;14.10;99.90;;;;;;4368999;32;20130;-76
2022/10/29 04:19:39;;;;;;;0.77;0.77;;;14.10;99.90;;;;;;4367914;32;20125;-76
2022/10/29 04:22:04;;;;;;;2.58;1.05;;;14.00;99.90;;;;;;4368250;32;20086;-75
2022/10/29 04:24:30;;;;;;;0.77;0.77;;;14.00;99.90;;;;;;4370479;32;20416;-76
2022/10/29 04:26:55;;;;;;;0.60;0.60;;;14.00;99.90;;;;;;4372170;32;20510;-76
2022/10/29 04:29:21;;;;;;;1.55;0.95;;;13.90;99.90;;;;;;4369306;32;20167;-76
2022/10/29 04:31:47;;;;;;;0.50;0.50;;;14.00;99.90;;;;;;4368943;32;20079;-76
2022/10/29 04:34:12;;;;;;;0.45;0.45;;;14.00;99.90;;;;;;4354770;32;20099;-75
2022/10/29 04:36:37;;;;;;;0.85;0.85;;;14.00;99.90;;;;;;4355977;32;20066;-76
2022/10/29 04:39:03;;;;;;;0.40;0.40;;;13.90;99.90;;;;;;4368378;32;20145;-76
2022/10/29 04:41:29;;;;;;;1.48;1.15;;;14.00;99.90;;;;;;4372427;32;20121;-77
2022/10/29 04:43:54;;;;;;;1.17;0.90;;;14.00;99.90;;;;;;4369539;32;20102;-75
2022/10/29 04:46:19;;;;;;;0.85;0.85;;;13.90;99.90;;;;;;4370272;32;20527;-77
2022/10/29 04:48:45;;;;;;;3.83;1.52;;;13.90;99.90;;;;;;4371050;32;20130;-76
2022/10/29 04:51:19;;;;;;;0.65;0.65;;;14.00;99.90;;;;;;4371110;32;20201;-75
2022/10/29 04:53:45;;;;;;;13.20;1.02;;;14.00;99.90;;;;;;4371070;32;20078;-76
2022/10/29 04:56:10;;;;;;;1.45;0.93;;;14.20;99.90;;;;;;4368749;32;20193;-75
2022/10/29 04:58:36;;;;;;;1.67;1.50;;;14.30;99.90;;;;;;4371972;32;20551;-76
2022/10/29 05:01:03;;;;;;;4.32;1.55;;;14.30;99.90;;;;;;4374415;32;20058;-76
2022/10/29 05:03:29;;;;;;;11.07;1.25;;;14.40;99.90;;;;;;4360862;32;20531;-75
2022/10/29 05:05:55;;;;;;;0.50;0.50;;;14.30;99.90;;;;;;4351819;32;20075;-75
2022/10/29 05:08:21;;;;;;;2.33;0.88;;;14.30;99.90;;;;;;4370647;32;20071;-76
2022/10/29 05:10:46;;;;;;;0.73;0.57;;;14.30;99.90;;;;;;4370509;32;20070;-76
2022/10/29 05:13:12;;;;;;;0.70;0.70;;;14.20;99.90;;;;;;4372957;32;20062;-75
2022/10/29 05:15:38;;;;;;;1.37;1.20;;;14.30;99.90;;;;;;4367697;32;20121;-76
2022/10/29 05:18:04;;;;;;;0.40;0.40;;;14.30;99.90;;;;;;4369585;32;20168;-76
2022/10/29 05:20:30;;;;;;;0.50;0.50;;;14.30;99.90;;;;;;4371902;32;20134;-77
2022/10/29 05:22:59;;;;;;;3.20;1.37;;;14.40;99.90;;;;;;4371448;32;20078;-77
2022/10/29 05:25:25;;;;;;;1.60;1.08;;;14.30;99.90;;;;;;4373684;32;20130;-76
2022/10/29 05:28:02;;;;;;;1.95;1.23;;;14.30;99.90;;;;;;4371548;32;20125;-76
2022/10/29 05:30:28;;;;;;;6.12;0.93;;;14.30;99.90;;;;;;4369603;32;20090;-76
2022/10/29 05:32:53;;;;;;;24.95;2.42;;;14.40;99.90;;;;;;4364866;32;20424;-76
2022/10/29 05:35:19;;;;;;;5.37;1.87;;;14.40;99.90;;;;;;4351892;32;20079;-77
2022/10/29 05:37:53;;;;;;;1.73;1.52;;;14.30;99.90;;;;;;4366501;32;20087;-76
2022/10/29 05:40:20;;;;;;;1.30;1.15;;;14.30;99.90;;;;;;4372410;32;20503;-76
2022/10/29 05:42:45;;;;;;;0.80;0.73;;;14.20;99.90;;;;;;4372549;32;20066;-75
2022/10/29 05:45:11;;;;;;;0.82;0.82;;;14.10;99.90;;;;;;4370570;32;20206;-75
2022/10/29 05:47:36;;;;;;;1.02;1.00;;;14.10;99.90;;;;;;4372175;32;20111;-75
2022/10/29 05:50:03;;;;;;;4.22;1.80;;;14.10;99.90;;;;;;4373347;32;20089;-75
2022/10/29 05:52:28;;;;;;;2.80;1.67;;;14.00;99.90;;;;;;4371256;32;20098;-75
2022/10/29 05:54:54;;;;;;;1.27;1.17;;;14.00;99.90;;;;;;4374548;32;20408;-76
2022/10/29 05:57:19;;;;;;;0.75;0.75;;;14.10;99.90;;;;;;4371157;32;20090;-75
2022/10/29 05:59:45;;;;;;;0.70;0.70;;;14.10;99.90;;;;;;4369359;32;20099;-76
2022/10/29 06:02:11;;;;;;;4.07;1.67;;;14.10;99.90;;;;;;4369751;32;20118;-75
2022/10/29 06:04:36;;;;;;;26.00;2.30;;;14.30;99.90;;;;;;4351395;32;20339;-74
2022/10/29 06:07:02;;;;;;;1.00;0.95;;;14.40;99.90;;;;;;4362266;32;20079;-76
2022/10/29 06:09:28;;;;;;;1.75;0.95;;;14.50;99.90;;;;;;4369986;32;20475;-75
2022/10/29 06:11:53;;;;;;;0.70;0.70;;;14.50;99.90;;;;;;4374369;32;20090;-74
2022/10/29 06:14:19;;;;;;;4.85;2.80;;;14.50;99.90;;;;;;4368273;32;20099;-74
2022/10/29 06:16:45;;;;;;;1.67;1.00;;;14.50;99.90;;;;;;4369364;32;20132;-74
2022/10/29 06:19:11;;;;;;;0.90;0.90;;;14.40;99.90;;;;;;4372561;32;20098;-75
2022/10/29 06:21:37;;;;;;;18.70;2.67;;;14.40;99.90;;;;;;4371563;32;20065;-75
2022/10/29 06:24:02;;;;;;;0.75;0.75;;;14.30;99.90;;;;;;4371738;32;20125;-76
2022/10/29 06:26:28;;;;;;;2.42;1.58;;;14.30;99.90;;;;;;4370984;32;20075;-76
2022/10/29 06:28:53;;;;;;;1.35;1.02;;;14.30;99.90;;;;;;4368307;32;20182;-75
2022/10/29 06:31:19;;;;;;;10.85;2.97;;;14.20;99.90;;;;;;4370400;32;20436;-75
2022/10/29 06:33:44;;;;;;;0.95;0.95;;;14.20;99.90;;;;;;4359312;32;20083;-73
2022/10/29 06:36:10;;;;;;;2.42;1.55;;;14.20;99.90;;;;;;4356088;32;20074;-73
2022/10/29 06:38:35;;;;;;;4.93;1.95;;;14.40;99.90;;;;;;4370214;32;20062;-76
2022/10/29 06:41:01;;;;;;;2.20;1.10;;;14.40;99.90;;;;;;4370353;32;20165;-76
2022/10/29 06:43:26;;;;;;;0.40;0.40;;;14.40;99.90;;;;;;4368392;32;20118;-76
2022/10/29 06:45:53;;;;;;;0.60;0.60;;;14.40;99.90;;;;;;4367947;32;20534;-77
2022/10/29 06:48:18;;;;;;;4.40;1.37;;;14.40;99.90;;;;;;4370469;32;20062;-76
2022/10/29 06:50:44;;;;;;;0.73;0.73;;;14.30;99.90;;;;;;4368823;32;20117;-76
2022/10/29 06:53:11;;;;;;;0.68;0.68;;;14.20;99.90;;;;;;4370034;32;20128;-76
2022/10/29 06:55:37;;;;;;;1.65;1.25;;;14.20;99.90;;;;;;4370232;32;20470;-76
2022/10/29 06:58:06;;;;;;;0.73;0.70;;;14.40;99.90;;;;;;4370812;32;20070;-76
2022/10/29 07:00:33;;;;;;;3.22;2.28;;;14.40;99.90;;;;;;4369060;32;20081;-76
2022/10/29 07:02:59;;;;;;;0.75;0.75;;;14.50;99.90;;;;;;4367935;32;20087;-74
2022/10/29 07:05:25;;;;;;;0.60;0.60;;;14.60;99.90;;;;;;4353957;32;20095;-75
2022/10/29 07:07:56;;;;;;;0.40;0.40;;;14.80;99.90;;;;;;4363514;32;20121;-77
2022/10/29 07:10:21;;;;;;;0.62;0.62;;;14.90;99.90;;;;;;4371941;32;20094;-76
2022/10/29 07:12:47;;;;;;;2.37;1.35;;;15.00;99.90;;;;;;4370835;32;20436;-76
2022/10/29 07:15:12;;;;;;;1.12;1.02;;;15.00;99.90;;;;;;4370266;32;20433;-76
2022/10/29 07:17:38;;;;;;;1.95;1.25;;;14.90;99.90;;;;;;4374076;32;20102;-76
2022/10/29 07:20:06;;;;;;;3.67;2.30;;;14.90;99.90;;;;;;4367219;32;20070;-76
2022/10/29 07:22:31;;;;;;;2.50;1.10;;;14.80;99.90;;;;;;4371575;32;20083;-76
2022/10/29 07:24:57;;;;;;;1.87;1.25;;;14.80;99.90;;;;;;4368354;32;20102;-76
2022/10/29 07:27:22;;;;;;;0.88;0.80;;;14.90;99.90;;;;;;4372927;32;20095;-76
2022/10/29 07:29:48;;;;;;;1.42;1.33;;;14.80;99.90;;;;;;4369424;32;20819;-76
2022/10/29 07:32:13;;;;;;;1.20;1.08;;;14.90;99.90;;;;;;4372032;32;20066;-76
2022/10/29 07:34:39;;;;;;;7.03;2.25;;;15.00;99.90;;;;;;4354057;32;20090;-75
2022/10/29 07:37:04;;;;;;;0.52;0.52;;;15.10;99.90;;;;;;4359564;32;20129;-76
2022/10/29 07:39:29;;;;;;;11.70;1.73;;;15.20;99.90;;;;;;4368414;32;20090;-76
2022/10/29 07:41:55;;;;;;;0.70;0.70;;;15.30;99.90;;;;;;4370061;32;21576;-76
2022/10/29 07:44:20;;;;;;;1.50;0.68;;;15.40;99.90;;;;;;4368172;32;20075;-76
2022/10/29 07:46:46;;;;;;;2.92;2.03;;;15.40;99.90;;;;;;4370458;32;20070;-76
2022/10/29 07:49:11;;;;;;;1.25;0.98;;;15.40;99.90;;;;;;4368545;32;20278;-76
2022/10/29 07:51:37;;;;;;;6.57;1.80;;;15.50;99.90;;;;;;4369750;32;20557;-76
2022/10/29 07:54:02;;;;;;;0.77;0.77;;;15.60;99.90;;;;;;4367552;32;20093;-75
2022/10/29 07:56:28;;;;;;;0.73;0.73;;;15.60;99.90;;;;;;4371348;32;20089;-75
2022/10/29 07:58:53;;;;;;;3.08;1.25;;;15.70;99.90;;;;;;4366868;32;20134;-75
2022/10/29 08:01:19;;;;;;;1.60;1.00;;;15.80;99.90;;;;;;4368559;32;20083;-75
2022/10/29 08:03:44;;;;;;;2.05;0.75;;;15.90;99.90;;;;;;4357651;32;20130;-75
2022/10/29 08:06:10;;;;;;;3.62;1.83;;;16.00;99.90;;;;;;4354333;32;20396;-74
2022/10/29 08:08:35;;;;;;;0.60;0.60;;;16.00;99.90;;;;;;4372126;32;20103;-75
2022/10/29 08:11:02;;;;;;;1.17;1.12;;;16.10;99.90;;;;;;4369577;32;20089;-77
2022/10/29 08:13:28;;;;;;;1.20;1.10;;;16.20;99.90;;;;;;4368774;32;20145;-76
2022/10/29 08:15:54;;;;;;;3.00;1.00;;;16.30;99.90;;;;;;4370434;32;20075;-76
2022/10/29 08:18:19;;;;;;;1.05;0.82;;;16.30;99.90;;;;;;4370277;32;20074;-76
2022/10/29 08:20:45;;;;;;;4.68;2.70;;;16.40;99.90;;;;;;4373093;32;20066;-76
2022/10/29 08:23:11;;;;;;;7.78;3.20;;;16.40;99.90;;;;;;4370482;32;20429;-75
2022/10/29 08:25:40;;;;;;;0.57;0.57;;;16.40;99.90;;;;;;4373215;32;20118;-75
2022/10/29 08:28:06;;;;;;;5.62;1.92;;;16.40;99.90;;;;;;4375172;32;20067;-76
2022/10/29 08:30:32;;;;;;;0.55;0.55;;;16.50;99.90;;;;;;4371671;32;20158;-75
2022/10/29 08:32:58;;;;;;;2.45;1.10;;;16.60;99.90;;;;;;4363678;32;87937;-75
2022/10/29 08:35:25;;;;;;;3.72;1.42;;;16.70;99.90;;;;;;4354587;32;20566;-75
2022/10/29 08:37:50;;;;;;;0.60;0.60;;;16.80;99.90;;;;;;4365877;32;20092;-76
2022/10/29 08:40:25;;;;;;;0.90;0.90;;;16.90;99.90;;;;;;4370237;32;20125;-76
2022/10/29 08:43:28;;;;;;;1.20;1.10;;;17.00;99.90;;;;;;4368509;32;20063;-76
2022/10/29 08:45:55;;;;;;;0.50;0.50;;;17.10;99.90;;;;;;4361847;32;20078;-76
2022/10/29 08:48:40;;;;;;;3.35;1.62;;;17.20;99.90;;;;;;4373436;32;20717;-75
2022/10/29 08:51:29;;;;;;;0.40;0.40;;;17.30;99.90;;;;;;4362463;32;20110;-75
2022/10/29 08:53:57;;;;;;;2.37;0.90;;;17.40;99.90;;;;;;4363021;32;20127;-75
2022/10/29 08:56:44;;;;;;;0.40;0.40;;;17.50;99.90;;;;;;4370930;32;20094;-75
2022/10/29 08:59:15;;;;;;;1.45;1.35;;;17.50;99.90;;;;;;4370345;32;20154;-75
2022/10/29 09:01:42;;;;;;;3.30;1.40;;;17.60;99.90;;;;;;4371453;32;20066;-76
2022/10/29 09:04:18;;;;;;;31.87;2.25;;;17.60;99.90;;;;;;4356974;32;20458;-75
2022/10/29 09:06:55;;;;;;;2.92;1.37;;;17.60;99.90;;;;;;4359823;32;20051;-76
2022/10/29 09:09:43;;;;;;;1.10;0.80;;;17.70;99.90;;;;;;4372236;32;20090;-76
2022/10/29 09:12:48;;;;;;;0.88;0.88;;;17.80;99.90;;;;;;4371182;32;20090;-75
2022/10/29 09:15:35;;;;;;;2.22;1.40;;;17.90;99.90;;;;;;4363307;32;20070;-74
2022/10/29 09:18:40;;;;;;;0.57;0.57;;;18.00;99.90;;;;;;4365458;32;20070;-76
2022/10/29 09:21:17;;;;;;;1.20;0.70;;;18.10;99.90;;;;;;4369887;32;20534;-75
2022/10/29 09:23:56;;;;;;;0.40;0.40;;;18.20;99.90;;;;;;4371702;32;20077;-76
2022/10/29 09:26:29;;;;;;;4.37;0.62;;;18.40;99.90;;;;;;4365704;32;20084;-76
2022/10/29 09:29:23;;;;;;;1.12;1.02;;;18.50;99.90;;;;;;4364978;32;20083;-76
2022/10/29 09:31:56;;;;;;;1.20;1.10;;;18.70;99.90;;;;;;4359953;32;20066;-74
2022/10/29 09:34:33;;;;;;;0.93;0.90;;;18.60;99.90;;;;;;4358128;32;20106;-74
2022/10/29 09:36:59;;;;;;;0.70;0.70;;;18.80;99.90;;;;;;4360259;32;20420;-75
2022/10/29 09:39:32;;;;;;;1.10;0.98;;;19.00;99.90;;;;;;4371992;32;20079;-75
2022/10/29 09:42:00;;;;;;;3.33;1.25;;;19.00;99.90;;;;;;4365379;32;20062;-75
2022/10/29 09:44:37;;;;;;;5.95;0.75;;;19.10;99.90;;;;;;4370656;32;20452;-76
2022/10/29 09:47:30;;;;;;;2.95;0.68;;;19.00;99.90;;;;;;4362762;32;20083;-75
2022/10/29 09:50:25;;;;;;;10.93;1.02;;;18.90;99.90;;;;;;4358878;32;20409;-76
2022/10/29 09:52:52;;;;;;;1.65;0.75;;;18.80;99.90;;;;;;4363930;32;20071;-76
2022/10/29 09:55:21;;;;;;;1.77;1.20;;;18.80;99.90;;;;;;4372566;32;20550;-76
2022/10/29 09:57:48;;;;;;;1.00;0.98;;;18.70;99.90;;;;;;4369120;32;20141;-76
2022/10/29 10:00:20;;;;;;;0.30;0.30;;;18.70;99.90;;;;;;4369340;32;20527;-76
2022/10/29 10:02:55;;;;;;;4.07;2.37;;;18.60;99.90;;;;;;4370478;32;20118;-75
2022/10/29 10:05:25;;;;;;;0.65;0.62;;;18.60;99.90;;;;;;4356169;32;20083;-75
2022/10/29 10:08:07;;;;;;;0.40;0.40;;;18.60;99.90;;;;;;4367438;32;20133;-75
2022/10/29 10:10:35;;;;;;;0.75;0.75;;;18.60;99.90;;;;;;4370022;32;20153;-76
2022/10/29 10:13:03;;;;;;;1.85;1.17;;;18.60;99.90;;;;;;4368959;32;20085;-75
2022/10/29 10:15:34;;;;;;;0.40;0.40;;;18.60;99.90;;;;;;4367530;32;20518;-76
2022/10/29 10:18:05;;;;;;;1.70;1.15;;;18.50;99.90;;;;;;4372200;32;20055;-76
2022/10/29 10:20:38;;;;;;;0.40;0.40;;;18.50;99.90;;;;;;4370686;32;20066;-75
2022/10/29 10:23:21;;;;;;;0.95;0.90;;;18.60;99.90;;;;;;4375011;32;20558;-76
2022/10/29 10:25:49;;;;;;;0.70;0.70;;;18.70;99.90;;;;;;4368495;32;20135;-75
2022/10/29 10:28:17;;;;;;;2.17;1.25;;;18.70;99.90;;;;;;4373589;32;20428;-76
2022/10/29 10:30:43;;;;;;;1.48;1.10;;;18.70;99.90;;;;;;4370348;32;20530;-75
2022/10/29 10:33:19;;;;;;;1.12;0.85;;;18.90;99.90;;;;;;4364652;32;20070;-75
2022/10/29 10:35:44;;;;;;;3.72;1.65;;;19.00;99.90;;;;;;4351738;32;20081;-76
2022/10/29 10:38:13;;;;;;;2.85;1.15;;;19.00;99.90;;;;;;4363235;32;20107;-76
2022/10/29 10:40:41;;;;;;;0.57;0.57;;;19.00;99.90;;;;;;4369716;32;20091;-75
2022/10/29 10:43:19;;;;;;;1.12;1.02;;;19.10;99.90;;;;;;4368823;32;20069;-75
2022/10/29 10:45:52;;;;;;;4.37;1.58;;;19.20;99.90;;;;;;4362987;32;20510;-75
2022/10/29 10:48:18;;;;;;;0.40;0.40;;;19.30;99.90;;;;;;4371398;32;20075;-74
2022/10/29 10:50:44;;;;;;;1.52;1.37;;;19.50;99.90;;;;;;4369710;32;20081;-74
2022/10/29 10:53:19;;;;;;;1.30;1.12;;;19.60;99.90;;;;;;4365656;32;20079;-74
2022/10/29 10:55:50;;;;;;;6.28;2.33;;;19.60;99.90;;;;;;4372144;32;20070;-75
2022/10/29 10:58:26;;;;;;;0.73;0.65;;;19.80;99.90;;;;;;4370488;32;20129;-75
2022/10/29 11:00:59;;;;;;;0.70;0.70;;;19.90;99.90;;;;;;4372062;32;20098;-75
2022/10/29 11:03:46;;;;;;;0.77;0.77;;;20.00;99.90;;;;;;4364227;32;20072;-74
2022/10/29 11:06:18;;;;;;;0.93;0.62;;;20.10;99.90;;;;;;4347437;32;20113;-74
2022/10/29 11:08:54;;;;;;;2.47;1.50;;;20.20;99.90;;;;;;4370215;32;20086;-75
2022/10/29 11:11:29;;;;;;;0.93;0.85;;;20.30;99.90;;;;;;4370600;32;20055;-75
2022/10/29 11:14:02;;;;;;;1.17;0.98;;;20.50;99.90;;;;;;4351935;32;20093;-75
2022/10/29 11:16:37;;;;;;;0.57;0.57;;;20.50;99.90;;;;;;4373025;32;20067;-75
2022/10/29 11:19:24;;;;;;;0.55;0.55;;;20.60;99.90;;;;;;4369156;32;20443;-75
2022/10/29 11:22:14;;;;;;;2.37;0.77;;;20.90;99.90;;;;;;4361880;32;20066;-75
2022/10/29 11:25:04;;;;;;;0.67;0.67;;;21.10;99.90;;;;;;4363929;32;20074;-75
2022/10/29 11:27:54;;;;;;;0.32;0.32;;;21.10;99.90;;;;;;4373208;32;20505;-75
2022/10/29 11:30:20;;;;;;;6.33;1.20;;;21.10;99.90;;;;;;4364791;32;20101;-75
2022/10/29 11:32:56;;;;;;;1.15;1.02;;;20.70;99.90;;;;;;4360462;32;20079;-75
2022/10/29 11:35:50;;;;;;;11.07;2.15;;;20.80;99.90;;;;;;4353103;32;20741;-75
2022/10/29 11:38:20;;;;;;;0.77;0.50;;;21.00;99.90;;;;;;4358188;32;20157;-75
2022/10/29 11:40:55;;;;;;;6.22;1.42;;;21.30;99.90;;;;;;4368378;32;20090;-75
2022/10/29 11:43:20;;;;;;;3.40;1.40;;;21.30;99.90;;;;;;4369767;32;20081;-75
2022/10/29 11:45:58;;;;;;;2.45;1.62;;;21.50;99.90;;;;;;4367270;32;20142;-75
2022/10/29 11:48:48;;;;;;;1.10;1.00;;;21.60;99.90;;;;;;4370156;32;20079;-75
2022/10/29 11:51:27;;;;;;;0.77;0.77;;;21.60;99.90;;;;;;4363702;32;20075;-76
2022/10/29 11:53:59;;;;;;;1.92;0.82;;;21.80;99.90;;;;;;4371267;32;20090;-76
2022/10/29 11:56:53;;;;;;;1.12;0.70;;;22.10;99.90;;;;;;4372786;32;20082;-75
2022/10/29 11:59:23;;;;;;;2.45;1.58;;;22.30;99.90;;;;;;4373103;32;20095;-76
2022/10/29 12:02:17;;;;;;;2.97;1.52;;;22.30;99.90;;;;;;4371485;32;20103;-75
2022/10/29 12:04:53;;;;;;;2.12;1.15;;;22.50;99.90;;;;;;4351835;32;20904;-75
2022/10/29 12:07:49;;;;;;;2.33;1.37;;;22.60;99.90;;;;;;4361153;32;20510;-75
2022/10/29 12:10:38;;;;;;;2.17;1.15;;;22.50;99.90;;;;;;4365041;32;20069;-76
2022/10/29 12:13:36;;;;;;;0.68;0.68;;;22.40;99.90;;;;;;4363673;32;20684;-75
2022/10/29 12:16:29;;;;;;;4.62;1.62;;;22.00;99.90;;;;;;4357579;32;20146;-75
2022/10/29 12:19:35;;;;;;;0.90;0.90;;;21.90;99.90;;;;;;4361291;32;20511;-75
2022/10/29 12:22:25;;;;;;;13.30;1.58;;;22.20;99.90;;;;;;4356717;32;20066;-75
2022/10/29 12:24:52;;;;;;;;;;;22.40;99.90;;;;;;4359421;32;20441;-75
2022/10/29 12:27:34;;;;;;;1.92;0.80;;;22.70;99.90;;;;;;4372439;32;19950;-76
2022/10/29 12:30:04;;;;;;;1.02;0.90;;;23.00;99.90;;;;;;4371263;32;20135;-75
2022/10/29 12:32:34;;;;;;;;;;;23.30;99.90;;;;;;4368143;32;20446;-75
2022/10/29 12:35:13;;;;;;;7.70;1.83;;;23.40;99.90;;;;;;4352861;32;19950;-75
2022/10/29 12:37:53;;;;;;;0.70;0.65;;;23.40;99.90;;;;;;4361498;32;20124;-75
2022/10/29 12:40:31;;;;;;;5.57;1.42;;;23.50;99.90;;;;;;4369709;32;20066;-75
2022/10/29 12:43:03;;;;;;;2.55;1.10;;;23.60;99.90;;;;;;4367015;32;20063;-75
2022/10/29 12:45:53;;;;;;;0.65;0.65;;;23.70;99.90;;;;;;4367127;32;20090;-76
2022/10/29 12:48:37;;;;;;;5.78;1.17;;;23.60;99.90;;;;;;4354032;32;20067;-75
2022/10/29 12:51:20;;;;;;;6.40;1.75;;;23.30;99.90;;;;;;4365440;32;20162;-76
2022/10/29 12:54:02;;;;;;;1.65;1.23;;;23.00;99.90;;;;;;4371460;32;20079;-75
2022/10/29 12:56:29;;;;;;;1.00;0.50;;;22.80;99.90;;;;;;4371426;32;20106;-76
2022/10/29 12:58:58;;;;;;;4.87;1.90;;;22.60;99.90;;;;;;4372698;32;20094;-75
2022/10/29 13:01:27;;;;;;;0.62;0.57;;;22.50;99.90;;;;;;4367677;32;20120;-75
2022/10/29 13:03:55;;;;;;;17.83;2.87;;;22.40;99.90;;;;;;4355103;32;20085;-75
2022/10/29 13:06:41;;;;;;;0.75;0.75;;;22.30;99.90;;;;;;4357520;32;20075;-75
2022/10/29 13:09:19;;;;;;;2.20;0.82;;;22.30;99.90;;;;;;4361828;32;20519;-76